createdAt,value
2018-12-01T00:00:23.371Z,99941.13
2018-12-01T00:02:52.380Z,99936.09
2018-12-01T00:05:21.346Z,99931.80
2018-12-01T00:07:50.644Z,99936.90
2018-12-01T00:10:19.854Z,99934.90
2018-12-01T00:12:48.857Z,99934.70
2018-12-01T00:15:20.904Z,99935.86
2018-12-01T00:17:49.914Z,99930.12
2018-12-01T00:20:22.310Z,99930.40
2018-12-01T00:22:51.227Z,99933.92
2018-12-01T00:25:20.179Z,99931.28
2018-12-01T00:27:49.247Z,99915.80
2018-12-01T00:30:18.835Z,99930.28
2018-12-01T00:32:48.907Z,99928.37
2018-12-01T00:35:17.888Z,99931.28
2018-12-01T00:37:46.862Z,99933.20
2018-12-01T00:40:17.728Z,99936.43
2018-12-01T00:42:48.069Z,99933.41
2018-12-01T00:45:17.943Z,99931.72
2018-12-01T00:47:47.928Z,99928.28
2018-12-01T00:50:19.020Z,99929.28
2018-12-01T00:52:48.904Z,99928.97
2018-12-01T00:55:18.692Z,99937.55
2018-12-01T00:57:47.637Z,99935.83
2018-12-01T01:00:20.096Z,99934.40
2018-12-01T01:02:50.914Z,99930.53
2018-12-01T01:05:20.642Z,99942.94
2018-12-01T01:07:49.735Z,99939.06
2018-12-01T01:10:19.246Z,99932.77
2018-12-01T01:12:48.240Z,99937.40
2018-12-01T01:15:17.378Z,99931.25
2018-12-01T01:17:46.328Z,99936.91
2018-12-01T01:20:16.276Z,99932.56
2018-12-01T01:22:45.729Z,99929.93
2018-12-01T01:25:15.369Z,99931.25
2018-12-01T01:27:44.410Z,99930.02
2018-12-01T01:30:19.422Z,99924.95
2018-12-01T01:32:48.937Z,99923.27
2018-12-01T01:35:17.923Z,99926.27
2018-12-01T01:37:46.896Z,99928.09
2018-12-01T01:40:16.679Z,99929.85
2018-12-01T01:42:46.287Z,99916.69
2018-12-01T01:45:16.201Z,99923.55
2018-12-01T01:47:45.247Z,99916.69
2018-12-01T01:50:15.311Z,99920.92
2018-12-01T01:52:44.351Z,99920.11
2018-12-01T01:55:13.322Z,99924.30
2018-12-01T01:57:42.423Z,99912.73
2018-12-01T02:00:15.626Z,99916.08
2018-12-01T02:02:45.596Z,99911.77
2018-12-01T02:05:15.307Z,99912.25
2018-12-01T02:07:44.254Z,99911.70
2018-12-01T02:10:14.334Z,99915.88
2018-12-01T02:12:43.261Z,99913.66
2018-12-01T02:15:12.939Z,99905.55
2018-12-01T02:17:41.886Z,99907.91
2018-12-01T02:20:12.823Z,99903.64
2018-12-01T02:22:41.784Z,99908.82
2018-12-01T02:25:12.656Z,99909.34
2018-12-01T02:27:41.708Z,99899.52
2018-12-01T02:30:11.980Z,99904.79
2018-12-01T02:32:40.953Z,99901.44
2018-12-01T02:35:13.320Z,99908.22
2018-12-01T02:37:42.257Z,99912.69
2018-12-01T02:40:12.302Z,99905.30
2018-12-01T02:42:42.078Z,99911.89
2018-12-01T02:45:22.756Z,99909.54
2018-12-01T02:47:51.843Z,99912.77
2018-12-01T02:50:26.781Z,99910.02
2018-12-01T02:52:56.554Z,99914.84
2018-12-01T02:55:25.573Z,99914.33
2018-12-01T02:57:54.653Z,99912.22
2018-12-01T03:00:23.779Z,99914.33
2018-12-01T03:02:53.363Z,99913.61
2018-12-01T03:05:23.967Z,99923.95
2018-12-01T03:07:53.359Z,99925.42
2018-12-01T03:10:23.081Z,99925.42
2018-12-01T03:12:53.067Z,99931.30
2018-12-01T03:15:22.026Z,99930.49
2018-12-01T03:17:51.646Z,99934.84
2018-12-01T03:20:20.650Z,99939.19
2018-12-01T03:22:49.604Z,99936.84
2018-12-01T03:25:21.244Z,99935.04
2018-12-01T03:27:51.173Z,99936.92
2018-12-01T03:30:21.247Z,99937.95
2018-12-01T03:32:50.989Z,99948.66
2018-12-01T03:35:20.675Z,99939.19
2018-12-01T03:37:50.302Z,99934.84
2018-12-01T03:40:22.042Z,99941.63
2018-12-01T03:42:51.943Z,99944.89
2018-12-01T03:45:22.730Z,99936.80
2018-12-01T03:47:51.676Z,99942.18
2018-12-01T03:50:22.143Z,99950.80
2018-12-01T03:52:52.258Z,99943.98
2018-12-01T03:55:36.459Z,99948.25
2018-12-01T03:58:05.414Z,99935.45
2018-12-01T04:00:35.127Z,99934.44
2018-12-01T04:03:05.247Z,99938.47
2018-12-01T04:05:34.171Z,99932.17
2018-12-01T04:08:03.134Z,99925.59
2018-12-01T04:10:32.098Z,99935.72
2018-12-01T04:13:01.001Z,99938.35
2018-12-01T04:15:30.024Z,99938.84
2018-12-01T04:17:59.059Z,99936.80
2018-12-01T04:20:28.087Z,99944.94
2018-12-01T04:22:57.032Z,99943.70
2018-12-01T04:25:26.511Z,99943.31
2018-12-01T04:27:55.542Z,99939.95
2018-12-01T04:30:25.930Z,99945.50
2018-12-01T04:32:54.877Z,99950.49
2018-12-01T04:35:24.741Z,99947.66
2018-12-01T04:37:54.707Z,99954.64
2018-12-01T04:40:24.118Z,99958.04
2018-12-01T04:42:53.400Z,99959.95
2018-12-01T04:45:22.406Z,99964.70
2018-12-01T04:47:51.368Z,99968.97
2018-12-01T04:50:20.434Z,99965.90
2018-12-01T04:52:49.652Z,99966.70
2018-12-01T04:55:19.511Z,99969.86
2018-12-01T04:57:48.520Z,99973.00
2018-12-01T05:00:18.593Z,99967.73
2018-12-01T05:02:47.689Z,99969.05
2018-12-01T05:05:19.476Z,99969.34
2018-12-01T05:07:48.540Z,99969.05
2018-12-01T05:10:18.498Z,99967.73
2018-12-01T05:12:47.461Z,99975.80
2018-12-01T05:15:17.436Z,99976.31
2018-12-01T05:17:46.701Z,99977.04
2018-12-01T05:20:19.688Z,99982.11
2018-12-01T05:22:49.317Z,99981.80
2018-12-01T05:25:18.309Z,99977.04
2018-12-01T05:27:47.246Z,99985.63
2018-12-01T05:30:16.205Z,99980.47
2018-12-01T05:32:45.198Z,99981.51
2018-12-01T05:35:16.628Z,99991.25
2018-12-01T05:37:45.575Z,99985.66
2018-12-01T05:40:14.577Z,99988.61
2018-12-01T05:42:43.636Z,99988.02
2018-12-01T05:45:18.629Z,99992.16
2018-12-01T05:47:47.599Z,99988.94
2018-12-01T05:50:22.706Z,99985.89
2018-12-01T05:52:52.495Z,99996.43
2018-12-01T05:55:24.175Z,99999.64
2018-12-01T05:57:53.173Z,99995.11
2018-12-01T06:00:22.349Z,100008.57
2018-12-01T06:02:51.295Z,100003.30
2018-12-01T06:05:20.338Z,100000.95
2018-12-01T06:07:49.290Z,100005.81
2018-12-01T06:10:19.343Z,100002.87
2018-12-01T06:12:48.845Z,100006.73
2018-12-01T06:15:18.343Z,100010.33
2018-12-01T06:17:47.281Z,100013.84
2018-12-01T06:20:19.405Z,100009.61
2018-12-01T06:22:48.594Z,100013.05
2018-12-01T06:25:18.726Z,100010.81
2018-12-01T06:27:47.758Z,100014.56
2018-12-01T06:30:17.649Z,100019.11
2018-12-01T06:32:47.435Z,100011.72
2018-12-01T06:35:16.505Z,100011.20
2018-12-01T06:37:45.498Z,100020.91
2018-12-01T06:40:19.559Z,100037.44
2018-12-01T06:42:48.793Z,100042.27
2018-12-01T06:45:18.102Z,100033.25
2018-12-01T06:47:47.185Z,100031.56
2018-12-01T06:50:20.529Z,100029.81
2018-12-01T06:52:49.873Z,100036.84
2018-12-01T06:55:18.888Z,100035.72
2018-12-01T06:57:48.033Z,100046.05
2018-12-01T07:00:23.057Z,100053.36
2018-12-01T07:02:52.888Z,100052.16
2018-12-01T07:05:21.824Z,100053.19
2018-12-01T07:07:50.817Z,100053.28
2018-12-01T07:10:20.935Z,100053.24
2018-12-01T07:12:53.076Z,100054.13
2018-12-01T07:15:26.454Z,100055.88
2018-12-01T07:17:55.527Z,100060.12
2018-12-01T07:20:24.696Z,100059.52
2018-12-01T07:22:53.788Z,100059.83
2018-12-01T07:25:22.853Z,100061.95
2018-12-01T07:27:51.880Z,100060.91
2018-12-01T07:30:20.824Z,100060.52
2018-12-01T07:32:49.808Z,100060.20
2018-12-01T07:35:18.742Z,100060.28
2018-12-01T07:37:47.743Z,100060.88
2018-12-01T07:40:17.815Z,100054.02
2018-12-01T07:42:46.851Z,100054.81
2018-12-01T07:45:16.193Z,100060.80
2018-12-01T07:47:45.270Z,100055.73
2018-12-01T07:50:15.387Z,100065.39
2018-12-01T07:52:46.579Z,100064.88
2018-12-01T07:55:15.560Z,100063.23
2018-12-01T07:57:44.535Z,100060.20
2018-12-01T08:00:14.647Z,100057.31
2018-12-01T08:02:44.882Z,100069.05
2018-12-01T08:05:13.870Z,100071.97
2018-12-01T08:07:42.929Z,100071.37
2018-12-01T08:10:13.858Z,100067.42
2018-12-01T08:12:42.888Z,100066.62
2018-12-01T08:15:15.812Z,100064.95
2018-12-01T08:17:45.362Z,100062.85
2018-12-01T08:20:15.191Z,100056.67
2018-12-01T08:22:44.393Z,100060.78
2018-12-01T08:25:17.322Z,100055.90
2018-12-01T08:27:48.704Z,100060.94
2018-12-01T08:30:20.996Z,100064.41
2018-12-01T08:32:50.019Z,100068.62
2018-12-01T08:35:19.082Z,100069.37
2018-12-01T08:37:48.161Z,100064.93
2018-12-01T08:40:18.293Z,100075.91
2018-12-01T08:42:47.270Z,100069.28
2018-12-01T08:45:16.285Z,100072.64
2018-12-01T08:47:45.294Z,100076.59
2018-12-01T08:50:15.479Z,100075.69
2018-12-01T08:52:44.592Z,100066.93
2018-12-01T08:55:14.712Z,100069.69
2018-12-01T08:57:43.725Z,100069.77
2018-12-01T09:00:15.045Z,100068.33
2018-12-01T09:02:44.786Z,100065.80
2018-12-01T09:05:13.724Z,100068.20
2018-12-01T09:07:42.691Z,100071.31
2018-12-01T09:10:11.638Z,100071.03
2018-12-01T09:12:40.595Z,100072.27
2018-12-01T09:15:11.468Z,100070.25
2018-12-01T09:17:40.981Z,100071.06
2018-12-01T09:20:13.063Z,100074.48
2018-12-01T09:22:43.142Z,100076.13
2018-12-01T09:25:15.187Z,100075.17
2018-12-01T09:27:44.407Z,100078.02
2018-12-01T09:30:18.561Z,100087.47
2018-12-01T09:32:47.634Z,100082.30
2018-12-01T09:35:16.581Z,100082.83
2018-12-01T09:37:45.528Z,100077.75
2018-12-01T09:40:16.225Z,100078.33
2018-12-01T09:42:45.522Z,100073.72
2018-12-01T09:45:16.409Z,100072.86
2018-12-01T09:47:46.528Z,100073.91
2018-12-01T09:50:15.819Z,100071.94
2018-12-01T09:52:45.981Z,100070.23
2018-12-01T09:55:18.316Z,100071.66
2018-12-01T09:57:47.844Z,100065.61
2018-12-01T10:00:24.584Z,100069.56
2018-12-01T10:02:53.592Z,100071.03
2018-12-01T10:05:22.622Z,100069.48
2018-12-01T10:07:51.725Z,100067.23
2018-12-01T10:10:21.901Z,100061.78
2018-12-01T10:12:52.042Z,100061.13
2018-12-01T10:15:23.931Z,100068.24
2018-12-01T10:17:52.343Z,100064.41
2018-12-01T10:20:25.992Z,100057.39
2018-12-01T10:22:55.136Z,100061.57
2018-12-01T10:25:24.257Z,100055.17
2018-12-01T10:27:53.304Z,100057.87
2018-12-01T10:30:22.563Z,100048.80
2018-12-01T10:32:52.171Z,100048.57
2018-12-01T10:35:24.059Z,100043.78
2018-12-01T10:37:57.461Z,100043.27
2018-12-01T10:40:26.485Z,100039.88
2018-12-01T10:42:55.455Z,100039.58
2018-12-01T10:45:24.402Z,100032.67
2018-12-01T10:47:53.424Z,100036.96
2018-12-01T10:50:23.288Z,100024.31
2018-12-01T10:52:53.332Z,100017.58
2018-12-01T10:55:24.263Z,100016.51
2018-12-01T10:57:54.813Z,100019.01
2018-12-01T11:00:29.318Z,100020.13
2018-12-01T11:03:03.591Z,100019.61
2018-12-01T11:05:33.040Z,100009.66
2018-12-01T11:08:02.009Z,100007.97
2018-12-01T11:10:31.069Z,100014.91
2018-12-01T11:13:00.033Z,100014.85
2018-12-01T11:15:29.073Z,100007.36
2018-12-01T11:17:58.233Z,100013.47
2018-12-01T11:20:27.238Z,100007.38
2018-12-01T11:22:58.033Z,100007.19
2018-12-01T11:25:28.049Z,100003.72
2018-12-01T11:27:57.199Z,100007.75
2018-12-01T11:30:26.214Z,100004.42
2018-12-01T11:32:55.252Z,100008.73
2018-12-01T11:35:24.331Z,100017.11
2018-12-01T11:37:53.314Z,100016.14
2018-12-01T11:40:22.459Z,100015.45
2018-12-01T11:42:52.697Z,100006.63
2018-12-01T11:45:21.716Z,100006.35
2018-12-01T11:47:51.671Z,100006.35
2018-12-01T11:50:20.949Z,100010.05
2018-12-01T11:52:50.580Z,100015.34
2018-12-01T11:55:20.864Z,100012.74
2018-12-01T11:57:50.040Z,100011.52
2018-12-01T12:00:20.125Z,100010.42
2018-12-01T12:02:49.111Z,100014.70
2018-12-01T12:05:18.135Z,100007.63
2018-12-01T12:07:58.802Z,100016.03
2018-12-01T12:10:27.804Z,100018.67
2018-12-01T12:12:56.800Z,100017.36
2018-12-01T12:15:26.536Z,100021.48
2018-12-01T12:17:59.091Z,100008.09
2018-12-01T12:20:28.380Z,100017.47
2018-12-01T12:22:57.351Z,100010.55
2018-12-01T12:25:26.340Z,100010.73
2018-12-01T12:27:55.450Z,100016.47
2018-12-01T12:30:25.946Z,100012.97
2018-12-01T12:32:53.405Z,100016.14
2018-12-01T12:35:22.414Z,100014.76
2018-12-01T12:37:51.375Z,100015.89
2018-12-01T12:40:23.305Z,100020.33
2018-12-01T12:42:53.385Z,100011.11
2018-12-01T12:45:22.761Z,100017.39
2018-12-01T12:47:51.832Z,100017.45
2018-12-01T12:50:20.856Z,100014.76
2018-12-01T12:52:51.852Z,100016.03
2018-12-01T12:55:21.853Z,100001.28
2018-12-01T12:57:51.021Z,99998.36
2018-12-01T13:00:22.143Z,99995.83
2018-12-01T13:02:52.469Z,99999.27
2018-12-01T13:05:24.700Z,100003.13
2018-12-01T13:07:53.839Z,100003.53
2018-12-01T13:10:23.728Z,100004.74
2018-12-01T13:12:52.736Z,99998.56
2018-12-01T13:15:21.741Z,100001.33
2018-12-01T13:17:50.676Z,99991.05
2018-12-01T13:20:23.437Z,99995.53
2018-12-01T13:23:01.190Z,100005.20
2018-12-01T13:25:30.209Z,99992.81
2018-12-01T13:28:01.007Z,99997.36
2018-12-01T13:30:35.277Z,99997.41
2018-12-01T13:33:04.239Z,100001.36
2018-12-01T13:35:33.189Z,100005.14
2018-12-01T13:38:02.186Z,100011.23
2018-12-01T13:40:31.226Z,100009.73
2018-12-01T13:43:00.253Z,100005.31
2018-12-01T13:45:29.349Z,100013.31
2018-12-01T13:47:58.428Z,100013.64
2018-12-01T13:50:27.442Z,100008.36
2018-12-01T13:53:00.030Z,100010.39
2018-12-01T13:55:29.077Z,100006.02
2018-12-01T13:57:58.089Z,100006.59
2018-12-01T14:00:27.773Z,100009.13
2018-12-01T14:02:56.851Z,100002.48
2018-12-01T14:05:26.019Z,100001.78
2018-12-01T14:07:54.986Z,99992.19
2018-12-01T14:10:27.242Z,99988.88
2018-12-01T14:12:58.553Z,99989.95
2018-12-01T14:15:27.525Z,99987.92
2018-12-01T14:17:56.592Z,99989.95
2018-12-01T14:20:25.675Z,99995.73
2018-12-01T14:22:54.884Z,99991.93
2018-12-01T14:25:23.828Z,99990.55
2018-12-01T14:27:55.315Z,99996.13
2018-12-01T14:30:25.499Z,99995.03
2018-12-01T14:32:54.484Z,100000.86
2018-12-01T14:35:26.643Z,99993.51
2018-12-01T14:38:14.480Z,99995.75
2018-12-01T14:40:44.519Z,99987.24
2018-12-01T14:43:13.711Z,99988.94
2018-12-01T14:45:43.772Z,99989.38
2018-12-01T14:48:12.832Z,99994.17
2018-12-01T14:50:41.796Z,99999.84
2018-12-01T14:53:12.189Z,100005.55
2018-12-01T14:55:41.203Z,100005.44
2018-12-01T14:58:12.459Z,100008.41
2018-12-01T15:00:41.565Z,100002.78
2018-12-01T15:03:10.641Z,100001.30
2018-12-01T15:05:40.792Z,100005.56
2018-12-01T15:08:09.836Z,100012.05
2018-12-01T15:10:38.827Z,100006.05
2018-12-01T15:13:07.808Z,99999.75
2018-12-01T15:15:36.900Z,100009.73
2018-12-01T15:18:06.003Z,100004.58
2018-12-01T15:20:35.166Z,100012.06
2018-12-01T15:23:04.369Z,100004.53
2018-12-01T15:25:33.303Z,100015.70
2018-12-01T15:28:02.269Z,100020.99
2018-12-01T15:30:31.283Z,100019.44
2018-12-01T15:33:08.852Z,100022.27
2018-12-01T15:35:37.830Z,100026.71
2018-12-01T15:38:07.850Z,100021.88
2018-12-01T15:40:36.967Z,100023.66
2018-12-01T15:43:06.084Z,100024.08
2018-12-01T15:45:35.264Z,100024.77
2018-12-01T15:48:04.297Z,100026.30
2018-12-01T15:50:33.289Z,100034.30
2018-12-01T15:53:02.246Z,100034.30
2018-12-01T15:55:31.208Z,100040.23
2018-12-01T15:58:00.452Z,100046.11
2018-12-01T16:00:29.434Z,100042.01
2018-12-01T16:02:58.394Z,100046.53
2018-12-01T16:05:27.331Z,100042.88
2018-12-01T16:07:57.552Z,100042.42
2018-12-01T16:10:26.811Z,100044.13
2018-12-01T16:12:58.276Z,100048.16
2018-12-01T16:15:29.993Z,100039.98
2018-12-01T16:17:59.181Z,100043.15
2018-12-01T16:20:28.141Z,100037.66
2018-12-01T16:22:57.093Z,100029.08
2018-12-01T16:25:26.361Z,100027.90
2018-12-01T16:27:55.338Z,100022.27
2018-12-01T16:30:26.661Z,100023.52
2018-12-01T16:32:57.196Z,100023.08
2018-12-01T16:35:26.124Z,100026.00
2018-12-01T16:37:55.405Z,100027.56
2018-12-01T16:40:27.929Z,100019.98
2018-12-01T16:42:58.312Z,100013.97
2018-12-01T16:45:27.324Z,100015.02
2018-12-01T16:47:56.381Z,100022.63
2018-12-01T16:50:25.596Z,100025.86
2018-12-01T16:52:54.616Z,100030.06
2018-12-01T16:55:23.559Z,100028.15
2018-12-01T16:57:52.724Z,100020.81
2018-12-01T17:00:21.691Z,100021.62
2018-12-01T17:02:53.101Z,100017.06
2018-12-01T17:05:23.333Z,100021.76
2018-12-01T17:07:52.847Z,100027.48
2018-12-01T17:10:22.369Z,100015.30
2018-12-01T17:12:55.788Z,100014.73
2018-12-01T17:15:24.811Z,100013.11
2018-12-01T17:17:53.783Z,100010.19
2018-12-01T17:20:22.799Z,100003.80
2018-12-01T17:22:54.235Z,100005.40
2018-12-01T17:25:23.770Z,100002.27
2018-12-01T17:27:53.911Z,99998.16
2018-12-01T17:30:25.091Z,100001.37
2018-12-01T17:32:54.900Z,99999.77
2018-12-01T17:35:25.220Z,99991.70
2018-12-01T17:37:55.732Z,99987.61
2018-12-01T17:40:35.253Z,99993.76
2018-12-01T17:43:05.817Z,99995.36
2018-12-01T17:45:34.797Z,99992.30
2018-12-01T17:48:03.765Z,99994.20
2018-12-01T17:50:33.502Z,99984.06
2018-12-01T17:53:02.511Z,99984.94
2018-12-01T17:55:31.880Z,99983.93
2018-12-01T17:58:00.816Z,99979.06
2018-12-01T18:00:30.578Z,99982.74
2018-12-01T18:03:01.807Z,99966.70
2018-12-01T18:05:35.479Z,99965.96
2018-12-01T18:08:05.335Z,99967.19
2018-12-01T18:10:34.269Z,99960.03
2018-12-01T18:13:03.356Z,99959.51
2018-12-01T18:15:32.470Z,99959.37
2018-12-01T18:18:01.414Z,99955.03
2018-12-01T18:20:30.388Z,99956.28
2018-12-01T18:23:00.668Z,99948.58
2018-12-01T18:25:32.202Z,99950.87
2018-12-01T18:28:01.148Z,99944.34
2018-12-01T18:30:33.428Z,99937.73
2018-12-01T18:33:10.128Z,99934.72
2018-12-01T18:35:39.555Z,99935.69
2018-12-01T18:38:09.616Z,99931.14
2018-12-01T18:40:38.565Z,99923.68
2018-12-01T18:43:08.431Z,99916.56
2018-12-01T18:45:38.769Z,99916.63
2018-12-01T18:48:07.748Z,99912.73
2018-12-01T18:50:36.792Z,99903.58
2018-12-01T18:53:09.864Z,99911.80
2018-12-01T18:55:40.804Z,99913.64
2018-12-01T18:58:10.468Z,99909.75
2018-12-01T19:00:45.535Z,99909.16
2018-12-01T19:03:14.750Z,99908.58
2018-12-01T19:05:43.693Z,99898.30
2018-12-01T19:08:12.668Z,99894.80
2018-12-01T19:10:41.863Z,99885.70
2018-12-01T19:13:10.830Z,99879.69
2018-12-01T19:15:39.753Z,99881.74
2018-12-01T19:18:09.168Z,99881.88
2018-12-01T19:20:38.420Z,99880.41
2018-12-01T19:23:08.857Z,99878.23
2018-12-01T19:25:39.098Z,99876.04
2018-12-01T19:28:08.039Z,99870.00
2018-12-01T19:30:37.485Z,99872.16
2018-12-01T19:33:08.993Z,99864.23
2018-12-01T19:35:38.004Z,99872.88
2018-12-01T19:38:08.599Z,99879.11
2018-12-01T19:40:37.638Z,99880.42
2018-12-01T19:43:06.709Z,99877.85
2018-12-01T19:45:35.631Z,99874.55
2018-12-01T19:48:04.604Z,99874.41
2018-12-01T19:50:35.976Z,99875.14
2018-12-01T19:53:06.204Z,99874.80
2018-12-01T19:55:35.130Z,99872.44
2018-12-01T19:58:08.709Z,99870.53
2018-12-01T20:00:38.024Z,99866.51
2018-12-01T20:03:09.538Z,99867.23
2018-12-01T20:05:38.461Z,99861.81
2018-12-01T20:08:08.238Z,99862.34
2018-12-01T20:10:40.704Z,99862.41
2018-12-01T20:13:13.222Z,99860.63
2018-12-01T20:15:45.269Z,99851.40
2018-12-01T20:18:20.199Z,99860.05
2018-12-01T20:20:49.142Z,99857.92
2018-12-01T20:23:18.081Z,99856.67
2018-12-01T20:25:50.153Z,99856.59
2018-12-01T20:28:19.182Z,99862.09
2018-12-01T20:30:50.066Z,99858.72
2018-12-01T20:33:19.794Z,99856.38
2018-12-01T20:36:14.673Z,99845.31
2018-12-01T20:38:54.600Z,99849.05
2018-12-01T20:41:23.533Z,99842.73
2018-12-01T20:43:52.576Z,99835.13
2018-12-01T20:46:21.573Z,99839.36
2018-12-01T20:48:50.936Z,99832.17
2018-12-01T20:51:19.867Z,99827.77
2018-12-01T20:53:49.353Z,99838.91
2018-12-01T20:56:20.668Z,99832.09
2018-12-01T20:58:49.599Z,99832.59
2018-12-01T21:01:18.833Z,99830.11
2018-12-01T21:03:47.816Z,99820.78
2018-12-01T21:06:16.733Z,99819.00
2018-12-01T21:08:46.887Z,99813.05
2018-12-01T21:11:16.943Z,99820.88
2018-12-01T21:13:45.905Z,99812.16
2018-12-01T21:16:14.861Z,99810.43
2018-12-01T21:18:43.810Z,99801.13
2018-12-01T21:21:12.725Z,99794.16
2018-12-01T21:23:41.698Z,99797.11
2018-12-01T21:26:10.679Z,99786.70
2018-12-01T21:28:39.725Z,99781.48
2018-12-01T21:31:11.391Z,99783.38
2018-12-01T21:33:40.328Z,99790.94
2018-12-01T21:36:09.802Z,99796.16
2018-12-01T21:38:38.748Z,99793.52
2018-12-01T21:41:07.687Z,99779.24
2018-12-01T21:43:36.625Z,99788.05
2018-12-01T21:46:05.569Z,99797.14
2018-12-01T21:48:34.521Z,99790.60
2018-12-01T21:51:03.488Z,99786.92
2018-12-01T21:53:32.460Z,99785.78
2018-12-01T21:56:01.504Z,99789.68
2018-12-01T21:58:30.448Z,99785.51
2018-12-01T22:01:00.524Z,99779.95
2018-12-01T22:03:30.416Z,99782.16
2018-12-01T22:06:01.474Z,99782.50
2018-12-01T22:08:31.271Z,99776.91
2018-12-01T22:11:00.374Z,99772.37
2018-12-01T22:13:29.366Z,99770.50
2018-12-01T22:15:58.327Z,99774.12
2018-12-01T22:18:27.307Z,99771.02
2018-12-01T22:20:56.247Z,99771.17
2018-12-01T22:23:25.211Z,99769.73
2018-12-01T22:25:54.305Z,99759.33
2018-12-01T22:28:23.244Z,99755.14
2018-12-01T22:30:54.454Z,99742.63
2018-12-01T22:33:24.779Z,99744.95
2018-12-01T22:35:54.028Z,99746.66
2018-12-01T22:38:23.810Z,99746.85
2018-12-01T22:40:53.476Z,99742.75
2018-12-01T22:43:22.424Z,99743.58
2018-12-01T22:45:51.458Z,99743.38
2018-12-01T22:48:22.245Z,99734.13
2018-12-01T22:50:52.374Z,99727.98
2018-12-01T22:53:21.332Z,99722.12
2018-12-01T22:55:50.345Z,99717.37
2018-12-01T22:58:20.487Z,99712.23
2018-12-01T23:00:54.775Z,99709.81
2018-12-01T23:03:24.780Z,99705.16
2018-12-01T23:05:53.728Z,99700.44
2018-12-01T23:08:23.960Z,99702.86
2018-12-01T23:10:53.179Z,99694.46
2018-12-01T23:13:22.235Z,99692.70
2018-12-01T23:15:51.175Z,99686.98
2018-12-01T23:18:22.516Z,99689.89
2018-12-01T23:20:51.540Z,99677.72
2018-12-01T23:23:20.552Z,99677.30
2018-12-01T23:25:49.676Z,99675.52
2018-12-01T23:28:18.604Z,99675.31
2018-12-01T23:30:50.347Z,99667.77
2018-12-01T23:33:23.504Z,99666.98
2018-12-01T23:35:52.446Z,99664.38
2018-12-01T23:38:21.480Z,99661.92
2018-12-01T23:40:50.483Z,99661.44
2018-12-01T23:43:19.621Z,99655.88
2018-12-01T23:45:48.570Z,99658.34
2018-12-01T23:48:17.605Z,99658.84
2018-12-01T23:50:50.419Z,99653.55
2018-12-01T23:53:19.343Z,99650.91
2018-12-01T23:55:48.307Z,99646.23
2018-12-01T23:58:17.238Z,99644.64
